ENTC/TOS METAR and TAF weather

Enter ICAO airport designator
Station Type Date Time Source
ENTC METAR 2019/04/19 22:20 UTC NOAA

ENTC 192220Z 21019KT 9999 FEW026 BKN043 07/04 Q1025 RMK WIND 2600FT 19016KT


Station Type Date Time Source
ENTC Decoded METAR 2019/04/19 22:20 UTC NOAA

Tromso / Langnes, Norway (ENTC) 69-41N 018-55E 10M
Apr 19, 2019 - 06:20 PM EDT / 2019.04.19 2220 UTC
Wind: from the SSW (210 degrees) at 22 MPH (19 KT):0
Visibility: greater than 7 mile(s):0
Sky conditions: mostly cloudy
Temperature: 44 F (7 C)
Dew Point: 39 F (4 C)
Relative Humidity: 81%
Pressure (altimeter): 30.27 in. Hg (1025 hPa)
ob: ENTC 192220Z 21019KT 9999 FEW026 BKN043 07/04 Q1025 RMK WIND 2600FT 19016KT
cycle: 22

Station Type Date Time Source
ENTC TAF 2019/04/19 18:57 UTC NOAA

TAF ENTC 191700Z 1918/2018 21020KT 9999 FEW020 BKN030
TEMPO 1918/2006 BKN012

Example: see airport list